createdAt,value
2019-05-12T00:01:39.725Z,70.44
2019-05-12T00:04:11.008Z,70.06
2019-05-12T00:06:42.241Z,70.32
2019-05-12T00:09:13.517Z,70.59
2019-05-12T00:11:44.660Z,70.10
2019-05-12T00:14:17.776Z,69.68
2019-05-12T00:16:49.295Z,68.87
2019-05-12T00:19:20.443Z,68.95
2019-05-12T00:21:51.638Z,68.54
2019-05-12T00:24:22.821Z,68.95
2019-05-12T00:26:55.608Z,69.76
2019-05-12T00:29:28.719Z,69.56
2019-05-12T00:31:59.902Z,69.66
2019-05-12T00:34:31.154Z,69.80
2019-05-12T00:37:02.373Z,70.10
2019-05-12T00:39:33.595Z,69.61
2019-05-12T00:42:04.834Z,70.89
2019-05-12T00:44:36.106Z,70.59
2019-05-12T00:47:08.144Z,70.87
2019-05-12T00:49:40.091Z,71.40
2019-05-12T00:52:11.300Z,72.27
2019-05-12T00:54:42.469Z,72.13
2019-05-12T00:57:13.691Z,71.31
2019-05-12T00:59:44.965Z,71.50
2019-05-12T01:02:18.227Z,69.97
2019-05-12T01:04:49.150Z,70.99
2019-05-12T01:07:20.399Z,71.05
2019-05-12T01:09:51.537Z,70.67
2019-05-12T01:12:22.712Z,71.65
2019-05-12T01:14:53.968Z,71.06
2019-05-12T01:17:25.155Z,70.78
2019-05-12T01:19:58.463Z,70.99
2019-05-12T01:22:29.238Z,71.53
2019-05-12T01:25:00.481Z,71.91
2019-05-12T01:27:31.711Z,71.80
2019-05-12T01:30:02.965Z,73.03
2019-05-12T01:32:38.266Z,72.81
2019-05-12T01:35:11.015Z,73.13
2019-05-12T01:37:42.241Z,73.31
2019-05-12T01:40:13.953Z,73.57
2019-05-12T01:42:45.345Z,73.57
2019-05-12T01:45:18.021Z,73.30
2019-05-12T01:47:49.308Z,74.36
2019-05-12T01:50:20.791Z,74.42
2019-05-12T01:52:52.053Z,74.45
2019-05-12T01:55:23.393Z,74.09
2019-05-12T01:57:54.548Z,74.39
2019-05-12T02:00:28.230Z,73.60
2019-05-12T02:02:58.962Z,73.97
2019-05-12T02:05:30.141Z,73.31
2019-05-12T02:08:02.063Z,73.56
2019-05-12T02:10:33.296Z,72.34
2019-05-12T02:13:04.566Z,72.56
2019-05-12T02:15:38.086Z,71.73
2019-05-12T02:18:09.209Z,71.91
2019-05-12T02:20:40.543Z,71.68
2019-05-12T02:23:11.759Z,71.40
2019-05-12T02:25:43.007Z,71.82
2019-05-12T02:28:14.208Z,71.65
2019-05-12T02:30:45.469Z,71.59
2019-05-12T02:33:16.727Z,72.42
2019-05-12T02:35:51.050Z,71.20
2019-05-12T02:38:25.053Z,71.20
2019-05-12T02:40:55.585Z,70.41
2019-05-12T02:43:27.085Z,71.09
2019-05-12T02:45:58.343Z,71.17
2019-05-12T02:50:59.221Z,72.05
2019-05-12T02:53:35.146Z,72.43
2019-05-12T02:56:08.294Z,71.78
2019-05-12T02:58:45.177Z,72.02
2019-05-12T03:01:15.765Z,72.89
2019-05-12T03:03:50.018Z,73.34
2019-05-12T03:06:25.019Z,73.24
2019-05-12T03:08:57.979Z,72.39
2019-05-12T03:11:35.289Z,72.13
2019-05-12T03:14:05.229Z,71.96
2019-05-12T03:16:36.484Z,71.12
2019-05-12T03:19:07.704Z,71.89
2019-05-12T03:21:39.074Z,71.30
2019-05-12T03:24:10.257Z,71.25
2019-05-12T03:26:44.738Z,70.79
2019-05-12T03:29:14.919Z,71.12
2019-05-12T03:31:48.795Z,71.21
2019-05-12T03:34:20.603Z,71.59
2019-05-12T03:36:58.568Z,70.98
2019-05-12T03:39:25.251Z,71.99
2019-05-12T03:41:56.499Z,71.27
2019-05-12T03:44:27.761Z,71.62
2019-05-12T03:46:59.062Z,72.94
2019-05-12T03:49:30.303Z,72.53
2019-05-12T03:52:04.728Z,72.97
2019-05-12T03:54:35.006Z,73.08
2019-05-12T03:57:06.450Z,72.48
2019-05-12T03:59:37.740Z,71.49
2019-05-12T04:02:08.850Z,71.75
2019-05-12T04:04:45.291Z,70.61
2019-05-12T04:07:16.803Z,71.24
2019-05-12T04:09:48.067Z,71.14
2019-05-12T04:12:19.218Z,71.08
2019-05-12T04:14:50.477Z,71.35
2019-05-12T04:17:24.359Z,71.86
2019-05-12T04:19:55.081Z,71.44
2019-05-12T04:22:26.298Z,71.37
2019-05-12T04:24:57.506Z,71.76
2019-05-12T04:27:28.777Z,70.89
2019-05-12T04:29:59.924Z,71.12
2019-05-12T04:32:31.191Z,70.66
2019-05-12T04:35:04.770Z,70.25
2019-05-12T04:37:35.535Z,70.63
2019-05-12T04:40:07.110Z,71.03
2019-05-12T04:42:38.407Z,71.21
2019-05-12T04:45:10.041Z,71.61
2019-05-12T04:47:41.308Z,70.82
2019-05-12T04:50:15.639Z,71.37
2019-05-12T04:52:45.753Z,71.83
2019-05-12T04:55:16.975Z,71.14
2019-05-12T04:57:48.235Z,71.65
2019-05-12T05:00:19.668Z,72.10
2019-05-12T05:02:50.893Z,73.42
2019-05-12T05:05:24.665Z,73.62
2019-05-12T05:07:55.041Z,73.27
2019-05-12T05:10:26.308Z,71.87
2019-05-12T05:12:57.564Z,72.29
2019-05-12T05:15:28.709Z,72.04
2019-05-12T05:17:59.908Z,70.87
2019-05-12T05:20:31.169Z,70.46
2019-05-12T05:23:03.482Z,70.75
2019-05-12T05:25:35.875Z,69.62
2019-05-12T05:28:07.169Z,68.52
2019-05-12T05:30:38.464Z,68.97
2019-05-12T05:33:09.706Z,67.77
2019-05-12T05:35:41.058Z,67.82
2019-05-12T05:38:18.682Z,67.22
2019-05-12T05:40:46.313Z,66.67
2019-05-12T05:43:18.425Z,66.06
2019-05-12T05:45:54.557Z,60.46
2019-05-12T05:48:24.138Z,58.68
2019-05-12T05:50:59.918Z,60.18
2019-05-12T05:53:44.006Z,60.71
2019-05-12T05:56:18.047Z,62.42
2019-05-12T05:58:51.956Z,61.90
2019-05-12T06:01:20.343Z,56.99
2019-05-12T06:03:53.251Z,51.71
2019-05-12T06:06:24.644Z,49.84
2019-05-12T06:09:00.090Z,47.78
2019-05-12T06:11:31.380Z,48.74
2019-05-12T06:14:11.070Z,48.13
2019-05-12T06:16:35.604Z,47.22
2019-05-12T06:19:06.800Z,48.75
2019-05-12T06:21:38.475Z,51.64
2019-05-12T06:24:15.659Z,54.85
2019-05-12T06:26:54.611Z,53.31
2019-05-12T06:29:20.344Z,52.42
2019-05-12T06:31:48.390Z,48.88
2019-05-12T06:34:20.994Z,48.26
2019-05-12T06:36:56.862Z,50.00
2019-05-12T06:39:25.371Z,49.88
2019-05-12T06:42:01.861Z,52.02
2019-05-12T06:44:29.671Z,47.67
2019-05-12T06:47:03.385Z,44.84
2019-05-12T06:49:33.845Z,45.66
2019-05-12T06:52:07.163Z,48.97
2019-05-12T06:54:44.609Z,51.84
2019-05-12T06:57:22.254Z,53.18
2019-05-12T06:59:50.950Z,53.71
2019-05-12T07:02:16.829Z,52.77
2019-05-12T07:04:56.344Z,54.86
2019-05-12T07:07:23.790Z,54.37
2019-05-12T07:09:57.069Z,51.01
2019-05-12T07:12:36.580Z,49.39
2019-05-12T07:14:59.927Z,47.38
2019-05-12T07:17:43.610Z,49.95
2019-05-12T07:20:14.781Z,50.70
2019-05-12T07:22:48.624Z,53.17
2019-05-12T07:25:22.906Z,55.67
2019-05-12T07:27:54.947Z,54.59
2019-05-12T07:30:32.715Z,53.35
2019-05-12T07:33:04.571Z,55.63
2019-05-12T07:35:36.458Z,55.58
2019-05-12T07:38:12.186Z,55.81
2019-05-12T07:40:41.574Z,53.66
2019-05-12T07:43:20.095Z,51.70
2019-05-12T07:45:53.895Z,47.29
2019-05-12T07:48:23.333Z,45.01
2019-05-12T07:50:58.527Z,48.64
2019-05-12T07:53:27.541Z,49.06
2019-05-12T07:55:58.769Z,51.50
2019-05-12T07:58:30.036Z,52.29
2019-05-12T08:01:02.943Z,51.81
2019-05-12T08:03:34.591Z,51.76
2019-05-12T08:06:06.042Z,52.91
2019-05-12T08:08:41.918Z,52.30
2019-05-12T08:11:16.332Z,51.81
2019-05-12T08:13:47.546Z,52.10
2019-05-12T08:16:19.621Z,53.19
2019-05-12T08:18:59.555Z,52.55
2019-05-12T08:21:43.701Z,53.08
2019-05-12T08:24:08.472Z,52.14
2019-05-12T08:26:43.601Z,52.34
2019-05-12T08:29:21.474Z,52.09
2019-05-12T08:31:54.858Z,53.13
2019-05-12T08:34:26.305Z,50.15
2019-05-12T08:37:00.696Z,47.87
2019-05-12T08:39:33.724Z,44.26
2019-05-12T08:42:06.402Z,41.32
2019-05-12T08:44:40.737Z,38.50
2019-05-12T08:47:12.168Z,37.93
2019-05-12T08:49:51.193Z,35.92
2019-05-12T08:52:18.728Z,36.40
2019-05-12T08:54:53.646Z,35.88
2019-05-12T08:57:25.020Z,37.70
2019-05-12T09:00:06.499Z,41.44
2019-05-12T09:02:39.961Z,42.70
2019-05-12T09:05:14.408Z,45.34
2019-05-12T09:07:47.780Z,44.45
2019-05-12T09:10:18.991Z,45.03
2019-05-12T09:12:54.090Z,41.40
2019-05-12T09:15:25.255Z,39.90
2019-05-12T09:18:04.761Z,36.47
2019-05-12T09:20:40.045Z,32.40
2019-05-12T09:23:09.452Z,35.11
2019-05-12T09:25:46.867Z,37.12
2019-05-12T09:28:13.923Z,40.87
2019-05-12T09:30:49.318Z,42.64
2019-05-12T09:33:21.435Z,46.25
2019-05-12T09:35:51.086Z,45.42
2019-05-12T09:38:25.584Z,43.79
2019-05-12T09:41:00.710Z,43.75
2019-05-12T09:43:28.570Z,42.20
2019-05-12T09:45:59.876Z,40.25
2019-05-12T09:48:33.342Z,38.15
2019-05-12T09:51:05.851Z,37.06
2019-05-12T09:53:36.968Z,39.82
2019-05-12T09:56:08.240Z,39.85
2019-05-12T09:58:39.458Z,38.20
2019-05-12T10:01:10.759Z,40.60
2019-05-12T10:03:43.746Z,41.19
2019-05-12T10:06:17.911Z,39.49
2019-05-12T10:08:47.775Z,38.38
2019-05-12T10:11:20.735Z,39.78
2019-05-12T10:13:54.082Z,41.19
2019-05-12T10:16:24.996Z,41.95
2019-05-12T10:18:56.241Z,41.32
2019-05-12T10:21:27.466Z,40.69
2019-05-12T10:24:01.839Z,41.25
2019-05-12T10:26:34.113Z,42.33
2019-05-12T10:29:16.341Z,43.88
2019-05-12T10:31:40.011Z,39.67
2019-05-12T10:34:20.515Z,41.80
2019-05-12T10:36:53.698Z,40.12
2019-05-12T10:39:25.489Z,40.18
2019-05-12T10:41:56.750Z,42.03
2019-05-12T10:44:29.764Z,41.14
2019-05-12T10:47:04.438Z,41.92
2019-05-12T10:49:39.906Z,38.31
2019-05-12T10:52:11.027Z,38.15
2019-05-12T10:54:43.461Z,38.17
2019-05-12T10:57:17.853Z,40.08
2019-05-12T10:59:49.122Z,38.52
2019-05-12T11:02:25.482Z,39.69
2019-05-12T11:04:54.152Z,37.94
2019-05-12T11:07:28.088Z,36.46
2019-05-12T11:10:05.614Z,37.58
2019-05-12T11:12:33.673Z,37.44
2019-05-12T11:15:09.102Z,37.55
2019-05-12T11:18:05.219Z,36.40
2019-05-12T11:20:36.715Z,37.63
2019-05-12T11:23:14.145Z,37.50
2019-05-12T11:25:45.302Z,39.61
2019-05-12T11:28:19.569Z,39.36
2019-05-12T11:30:50.860Z,39.66
2019-05-12T11:33:23.771Z,37.54
2019-05-12T11:35:55.188Z,36.85
2019-05-12T11:38:26.382Z,38.36
2019-05-12T11:40:57.770Z,38.25
2019-05-12T11:43:29.823Z,39.81
2019-05-12T11:46:04.049Z,35.05
2019-05-12T11:48:35.320Z,36.38
2019-05-12T11:51:09.564Z,37.01
2019-05-12T11:53:40.762Z,40.25
2019-05-12T11:56:13.916Z,38.46
2019-05-12T11:58:49.640Z,37.71
2019-05-12T12:01:19.544Z,38.64
2019-05-12T12:03:50.773Z,36.37
2019-05-12T12:06:23.948Z,38.91
2019-05-12T12:08:54.940Z,38.38
2019-05-12T12:11:28.116Z,38.88
2019-05-12T12:14:00.353Z,35.94
2019-05-12T12:16:33.978Z,37.91
2019-05-12T12:19:07.169Z,37.93
2019-05-12T12:21:40.281Z,39.91
2019-05-12T12:24:13.247Z,36.58
2019-05-12T12:26:44.733Z,35.16
2019-05-12T12:29:16.159Z,35.25
2019-05-12T12:31:51.739Z,37.11
2019-05-12T12:34:25.348Z,34.73
2019-05-12T12:36:56.058Z,35.71
2019-05-12T12:39:27.346Z,34.02
2019-05-12T12:42:00.750Z,35.50
2019-05-12T12:44:35.362Z,39.72
2019-05-12T12:47:06.715Z,37.31
2019-05-12T12:49:39.886Z,36.86
2019-05-12T12:52:10.981Z,36.44
2019-05-12T12:54:43.839Z,37.45
2019-05-12T12:57:15.386Z,38.39
2019-05-12T12:59:51.554Z,38.26
2019-05-12T13:02:19.678Z,38.02
2019-05-12T13:04:51.085Z,37.70
2019-05-12T13:07:24.116Z,38.80
2019-05-12T13:10:07.357Z,37.79
2019-05-12T13:12:31.855Z,38.96
2019-05-12T13:15:03.706Z,37.10
2019-05-12T13:17:40.124Z,35.38
2019-05-12T13:20:08.988Z,34.85
2019-05-12T13:22:40.253Z,36.94
2019-05-12T13:25:14.021Z,40.49
2019-05-12T13:27:44.834Z,36.71
2019-05-12T13:30:21.204Z,38.47
2019-05-12T13:32:49.591Z,39.55
2019-05-12T13:35:20.951Z,40.69
2019-05-12T13:38:00.602Z,40.76
2019-05-12T13:40:36.148Z,40.34
2019-05-12T13:43:09.370Z,40.88
2019-05-12T13:45:37.812Z,40.56
2019-05-12T13:48:09.673Z,38.27
2019-05-12T13:50:43.351Z,37.03
2019-05-12T13:53:14.812Z,39.41
2019-05-12T13:55:49.524Z,39.25
2019-05-12T13:58:19.083Z,40.46
2019-05-12T14:01:09.193Z,40.48
2019-05-12T14:03:23.373Z,36.35
2019-05-12T14:05:55.249Z,38.95
2019-05-12T14:08:26.629Z,39.12
2019-05-12T14:10:59.798Z,39.75
2019-05-12T14:13:30.687Z,38.39
2019-05-12T14:16:05.719Z,36.18
2019-05-12T14:18:36.293Z,35.97
2019-05-12T14:21:07.712Z,39.29
2019-05-12T14:23:38.961Z,40.46
2019-05-12T14:26:10.257Z,42.32
2019-05-12T14:28:45.595Z,42.57
2019-05-12T14:31:26.937Z,41.97
2019-05-12T14:33:47.560Z,41.76
2019-05-12T14:36:21.934Z,41.37
2019-05-12T14:38:53.574Z,42.10
2019-05-12T14:41:27.030Z,43.30
2019-05-12T14:44:01.546Z,44.32
2019-05-12T14:46:30.794Z,44.29
2019-05-12T14:49:03.612Z,44.57
2019-05-12T14:51:35.058Z,44.84
2019-05-12T14:54:06.384Z,45.05
2019-05-12T14:56:37.589Z,45.78
2019-05-12T14:59:08.733Z,45.10
2019-05-12T15:01:56.946Z,45.37
2019-05-12T15:04:13.293Z,47.24
2019-05-12T15:06:44.692Z,45.16
2019-05-12T15:09:24.652Z,46.28
2019-05-12T15:11:55.480Z,46.29
2019-05-12T15:14:32.867Z,45.33
2019-05-12T15:16:59.704Z,42.90
2019-05-12T15:19:33.255Z,41.00
2019-05-12T15:22:07.823Z,41.31
2019-05-12T15:24:36.999Z,40.76
2019-05-12T15:27:08.350Z,38.34
2019-05-12T15:29:39.529Z,35.21
2019-05-12T15:32:10.704Z,35.35
2019-05-12T15:34:44.111Z,36.27
2019-05-12T15:37:15.124Z,34.45
2019-05-12T15:39:46.417Z,34.30
2019-05-12T15:42:17.678Z,34.39
2019-05-12T15:44:49.000Z,33.54
2019-05-12T15:47:20.278Z,33.20
2019-05-12T15:49:53.183Z,32.28
2019-05-12T15:52:24.753Z,31.64
2019-05-12T15:54:56.015Z,32.23
2019-05-12T15:57:28.938Z,34.47
2019-05-12T16:00:00.344Z,35.31
2019-05-12T16:02:33.898Z,34.88
2019-05-12T16:05:04.551Z,35.18
2019-05-12T16:07:39.527Z,36.31
2019-05-12T16:10:09.152Z,36.82
2019-05-12T16:12:40.441Z,37.73
2019-05-12T16:15:17.244Z,38.55
2019-05-12T16:17:45.641Z,40.99
2019-05-12T16:20:16.988Z,41.47
2019-05-12T16:22:48.170Z,42.08
2019-05-12T16:25:28.962Z,42.92
2019-05-12T16:27:55.618Z,43.45
2019-05-12T16:30:33.952Z,43.92
2019-05-12T16:33:14.345Z,43.92
2019-05-12T16:35:47.546Z,44.98
2019-05-12T16:38:20.410Z,44.10
2019-05-12T16:40:53.902Z,43.33
2019-05-12T16:43:29.251Z,44.14
2019-05-12T16:46:04.259Z,42.31
2019-05-12T16:48:48.269Z,40.75
2019-05-12T16:51:19.366Z,41.59
2019-05-12T16:53:50.800Z,40.95
2019-05-12T16:56:28.050Z,41.80
2019-05-12T16:58:55.538Z,39.98
2019-05-12T17:01:29.359Z,42.33
2019-05-12T17:04:07.911Z,43.29
2019-05-12T17:06:40.504Z,43.61
2019-05-12T17:09:13.473Z,42.42
2019-05-12T17:11:52.395Z,42.71
2019-05-12T17:14:23.650Z,42.35
2019-05-12T17:17:00.310Z,43.80
2019-05-12T17:19:38.707Z,42.45
2019-05-12T17:22:28.325Z,43.33
2019-05-12T17:25:10.815Z,44.80
2019-05-12T17:27:47.064Z,42.90
2019-05-12T17:30:19.393Z,42.52
2019-05-12T17:33:00.529Z,42.36
2019-05-12T17:35:32.463Z,43.08
2019-05-12T17:38:04.240Z,45.07
2019-05-12T17:40:36.518Z,45.67
2019-05-12T17:43:12.001Z,45.91
2019-05-12T17:45:50.558Z,45.80
2019-05-12T17:48:19.511Z,44.63
2019-05-12T17:50:53.920Z,46.28
2019-05-12T17:53:30.623Z,44.99
2019-05-12T17:55:59.005Z,47.08
2019-05-12T17:58:36.616Z,46.07
2019-05-12T18:01:05.117Z,45.79
2019-05-12T18:03:39.440Z,45.65
2019-05-12T18:06:14.122Z,45.60
2019-05-12T18:08:44.380Z,45.87
2019-05-12T18:11:16.195Z,46.75
2019-05-12T18:13:47.687Z,47.05
2019-05-12T18:16:21.937Z,48.37
2019-05-12T18:18:52.430Z,49.16
2019-05-12T18:21:30.160Z,48.58
2019-05-12T18:24:00.372Z,50.47
2019-05-12T18:26:36.314Z,50.95
2019-05-12T18:29:08.050Z,49.50
2019-05-12T18:31:43.502Z,49.23
2019-05-12T18:34:14.500Z,50.09
2019-05-12T18:36:49.078Z,49.59
2019-05-12T18:39:24.095Z,49.04
2019-05-12T18:41:54.253Z,48.86
2019-05-12T18:44:31.081Z,49.91
2019-05-12T18:46:58.412Z,49.79
2019-05-12T18:49:34.250Z,50.08
2019-05-12T18:52:29.435Z,51.36
2019-05-12T18:54:57.505Z,51.15
2019-05-12T18:57:28.866Z,51.80
2019-05-12T19:00:04.837Z,51.11
2019-05-12T19:02:35.005Z,50.92
2019-05-12T19:05:12.219Z,50.27
2019-05-12T19:07:40.196Z,51.42
2019-05-12T19:10:14.485Z,50.85
2019-05-12T19:12:45.856Z,50.66
2019-05-12T19:15:21.896Z,51.43
2019-05-12T19:17:54.044Z,51.16
2019-05-12T19:20:24.892Z,51.79
2019-05-12T19:23:00.155Z,51.14
2019-05-12T19:25:35.945Z,51.58
2019-05-12T19:28:07.050Z,52.48
2019-05-12T19:30:37.610Z,52.79
2019-05-12T19:33:10.909Z,52.86
2019-05-12T19:35:41.783Z,53.15
2019-05-12T19:38:15.931Z,52.97
2019-05-12T19:40:55.248Z,53.05
2019-05-12T19:43:23.732Z,53.22
2019-05-12T19:46:02.926Z,53.88
2019-05-12T19:48:28.231Z,52.95
2019-05-12T19:51:15.950Z,52.40
2019-05-12T19:53:34.921Z,54.00
2019-05-12T19:56:06.505Z,52.63
2019-05-12T19:58:37.771Z,52.76
2019-05-12T20:01:09.138Z,52.54
2019-05-12T20:03:40.381Z,52.94
2019-05-12T20:06:13.524Z,53.26
2019-05-12T20:08:44.622Z,53.26
2019-05-12T20:11:20.041Z,52.42
2019-05-12T20:13:49.845Z,52.50
2019-05-12T20:16:23.197Z,53.18
2019-05-12T20:18:57.697Z,53.43
2019-05-12T20:21:28.361Z,52.53
2019-05-12T20:24:03.597Z,53.91
2019-05-12T20:26:38.398Z,52.83
2019-05-12T20:29:07.389Z,53.13
2019-05-12T20:31:46.697Z,53.07
2019-05-12T20:34:13.712Z,54.46
2019-05-12T20:36:44.578Z,53.99
2019-05-12T20:39:21.436Z,53.75
2019-05-12T20:41:48.780Z,54.43
2019-05-12T20:44:21.088Z,54.51
2019-05-12T20:46:56.115Z,54.73
2019-05-12T20:49:25.372Z,54.82
2019-05-12T20:52:04.079Z,56.40
2019-05-12T20:54:33.438Z,54.85
2019-05-12T20:57:08.057Z,55.01
2019-05-12T20:59:36.754Z,56.57
2019-05-12T21:02:07.969Z,56.00
2019-05-12T21:04:39.155Z,56.66
2019-05-12T21:07:14.013Z,56.58
2019-05-12T21:09:44.127Z,56.47
2019-05-12T21:12:15.532Z,55.82
2019-05-12T21:14:51.401Z,56.62
2019-05-12T21:17:19.697Z,56.58
2019-05-12T21:19:56.850Z,57.76
2019-05-12T21:22:23.918Z,57.62
2019-05-12T21:24:55.185Z,57.49
2019-05-12T21:27:26.431Z,57.60
2019-05-12T21:30:00.553Z,58.50
2019-05-12T21:32:30.624Z,58.16
2019-05-12T21:35:15.770Z,57.63
2019-05-12T21:37:44.467Z,58.78
2019-05-12T21:40:08.199Z,57.87
2019-05-12T21:42:39.406Z,58.53
2019-05-12T21:45:11.130Z,57.26
2019-05-12T21:47:44.340Z,58.47
2019-05-12T21:50:16.017Z,57.87
2019-05-12T21:52:47.260Z,58.81
2019-05-12T21:55:24.068Z,59.48
2019-05-12T21:57:53.688Z,59.60
2019-05-12T22:00:35.075Z,60.43
2019-05-12T22:03:10.927Z,58.91
2019-05-12T22:05:51.602Z,59.57
2019-05-12T22:08:20.577Z,59.99
2019-05-12T22:10:47.223Z,60.35
2019-05-12T22:13:18.413Z,58.97
2019-05-12T22:15:51.299Z,59.21
2019-05-12T22:18:23.905Z,59.55
2019-05-12T22:21:01.052Z,61.16
2019-05-12T22:23:28.146Z,60.96
2019-05-12T22:26:00.409Z,60.96
2019-05-12T22:28:34.077Z,60.55
2019-05-12T22:31:05.138Z,60.29
2019-05-12T22:33:40.854Z,60.08
2019-05-12T22:36:24.741Z,60.83
2019-05-12T22:38:44.261Z,60.53
2019-05-12T22:41:15.078Z,61.07
2019-05-12T22:43:46.228Z,61.34
2019-05-12T22:46:23.343Z,61.49
2019-05-12T22:48:50.413Z,61.91
2019-05-12T22:51:24.472Z,62.68
2019-05-12T22:53:54.589Z,62.66
2019-05-12T22:56:25.886Z,63.09
2019-05-12T22:59:00.091Z,62.97
2019-05-12T23:01:32.936Z,63.08
2019-05-12T23:04:03.795Z,63.29
2019-05-12T23:06:42.141Z,63.43
2019-05-12T23:11:39.295Z,63.41
2019-05-12T23:14:12.471Z,63.57
2019-05-12T23:16:44.274Z,63.47
2019-05-12T23:19:15.663Z,63.78
2019-05-12T23:21:49.233Z,64.42
2019-05-12T23:24:19.761Z,64.21
2019-05-12T23:26:51.057Z,64.59
2019-05-12T23:29:29.422Z,64.66
2019-05-12T23:32:00.495Z,64.82
2019-05-12T23:34:31.052Z,65.05
2019-05-12T23:37:03.842Z,65.46
2019-05-12T23:39:37.979Z,65.52
2019-05-12T23:42:08.137Z,65.63
2019-05-12T23:44:39.432Z,66.52
2019-05-12T23:47:10.682Z,66.20
2019-05-12T23:49:44.262Z,66.20
2019-05-12T23:52:14.856Z,66.78
2019-05-12T23:54:46.136Z,66.40
2019-05-12T23:57:17.342Z,66.68
2019-05-12T23:59:48.535Z,67.21
